sensor_id;sensor_type;location;lat;lon;timestamp;P1;durP1;ratioP1;P2;durP2;ratioP2
12253;SDS011;6189;52.526;13.390;2023-04-29T00:02:24;6.30;;;5.70;;
12253;SDS011;6189;52.526;13.390;2023-04-29T00:05:10;7.23;;;5.87;;
12253;SDS011;6189;52.526;13.390;2023-04-29T00:07:56;8.93;;;5.97;;
12253;SDS011;6189;52.526;13.390;2023-04-29T00:10:43;8.43;;;6.10;;
12253;SDS011;6189;52.526;13.390;2023-04-29T00:13:29;6.77;;;6.07;;
12253;SDS011;6189;52.526;13.390;2023-04-29T00:16:14;8.27;;;6.37;;
12253;SDS011;6189;52.526;13.390;2023-04-29T00:19:00;8.50;;;5.90;;
12253;SDS011;6189;52.526;13.390;2023-04-29T00:21:45;7.37;;;6.27;;
12253;SDS011;6189;52.526;13.390;2023-04-29T00:24:32;7.17;;;6.47;;
12253;SDS011;6189;52.526;13.390;2023-04-29T00:27:19;7.07;;;5.50;;
12253;SDS011;6189;52.526;13.390;2023-04-29T00:30:06;12.27;;;6.87;;
12253;SDS011;6189;52.526;13.390;2023-04-29T00:32:52;6.87;;;6.20;;
12253;SDS011;6189;52.526;13.390;2023-04-29T00:35:38;7.37;;;6.10;;
12253;SDS011;6189;52.526;13.390;2023-04-29T00:38:24;7.97;;;6.07;;
12253;SDS011;6189;52.526;13.390;2023-04-29T00:41:09;8.77;;;6.87;;
12253;SDS011;6189;52.526;13.390;2023-04-29T00:43:56;7.97;;;6.67;;
12253;SDS011;6189;52.526;13.390;2023-04-29T00:46:42;6.87;;;6.27;;
12253;SDS011;6189;52.526;13.390;2023-04-29T00:49:28;7.07;;;6.27;;
12253;SDS011;6189;52.526;13.390;2023-04-29T00:52:14;7.20;;;6.07;;
12253;SDS011;6189;52.526;13.390;2023-04-29T00:55:01;7.00;;;6.30;;
12253;SDS011;6189;52.526;13.390;2023-04-29T00:57:49;7.80;;;6.07;;
12253;SDS011;6189;52.526;13.390;2023-04-29T01:00:37;7.33;;;6.60;;
12253;SDS011;6189;52.526;13.390;2023-04-29T01:03:22;7.53;;;6.23;;
12253;SDS011;6189;52.526;13.390;2023-04-29T01:06:12;7.60;;;6.10;;
12253;SDS011;6189;52.526;13.390;2023-04-29T01:09:16;8.83;;;6.73;;
12253;SDS011;6189;52.526;13.390;2023-04-29T01:12:14;7.40;;;6.23;;
12253;SDS011;6189;52.526;13.390;2023-04-29T01:15:04;7.10;;;6.37;;
12253;SDS011;6189;52.526;13.390;2023-04-29T01:17:58;7.43;;;6.63;;
12253;SDS011;6189;52.526;13.390;2023-04-29T01:20:48;7.00;;;6.27;;
12253;SDS011;6189;52.526;13.390;2023-04-29T01:23:35;8.57;;;7.43;;
12253;SDS011;6189;52.526;13.390;2023-04-29T01:26:21;8.70;;;7.37;;
12253;SDS011;6189;52.526;13.390;2023-04-29T01:29:08;8.87;;;7.13;;
12253;SDS011;6189;52.526;13.390;2023-04-29T01:32:08;8.10;;;7.33;;
12253;SDS011;6189;52.526;13.390;2023-04-29T01:35:03;8.87;;;7.40;;
12253;SDS011;6189;52.526;13.390;2023-04-29T01:37:54;9.27;;;7.37;;
12253;SDS011;6189;52.526;13.390;2023-04-29T01:40:48;8.10;;;7.30;;
12253;SDS011;6189;52.526;13.390;2023-04-29T01:43:42;10.73;;;7.50;;
12253;SDS011;6189;52.526;13.390;2023-04-29T01:46:28;8.23;;;7.43;;
12253;SDS011;6189;52.526;13.390;2023-04-29T01:49:14;10.37;;;7.73;;
12253;SDS011;6189;52.526;13.390;2023-04-29T01:52:00;9.03;;;7.70;;
12253;SDS011;6189;52.526;13.390;2023-04-29T01:54:46;9.60;;;8.20;;
12253;SDS011;6189;52.526;13.390;2023-04-29T01:57:33;8.67;;;7.70;;
12253;SDS011;6189;52.526;13.390;2023-04-29T02:00:19;9.10;;;7.90;;
12253;SDS011;6189;52.526;13.390;2023-04-29T02:03:04;9.50;;;8.57;;
12253;SDS011;6189;52.526;13.390;2023-04-29T02:05:50;8.77;;;7.87;;
12253;SDS011;6189;52.526;13.390;2023-04-29T02:08:36;9.13;;;7.63;;
12253;SDS011;6189;52.526;13.390;2023-04-29T02:11:22;9.43;;;8.43;;
12253;SDS011;6189;52.526;13.390;2023-04-29T02:14:09;10.07;;;7.90;;
12253;SDS011;6189;52.526;13.390;2023-04-29T02:16:55;10.07;;;8.97;;
12253;SDS011;6189;52.526;13.390;2023-04-29T02:19:41;8.90;;;7.97;;
12253;SDS011;6189;52.526;13.390;2023-04-29T02:22:26;10.07;;;8.10;;
12253;SDS011;6189;52.526;13.390;2023-04-29T02:25:12;10.43;;;8.57;;
12253;SDS011;6189;52.526;13.390;2023-04-29T02:27:58;8.90;;;8.07;;
12253;SDS011;6189;52.526;13.390;2023-04-29T02:30:45;9.37;;;8.47;;
12253;SDS011;6189;52.526;13.390;2023-04-29T02:33:30;9.27;;;8.37;;
12253;SDS011;6189;52.526;13.390;2023-04-29T02:36:16;9.83;;;8.83;;
12253;SDS011;6189;52.526;13.390;2023-04-29T02:39:02;11.37;;;8.27;;
12253;SDS011;6189;52.526;13.390;2023-04-29T02:41:48;8.90;;;8.00;;
12253;SDS011;6189;52.526;13.390;2023-04-29T02:44:33;10.73;;;9.57;;
12253;SDS011;6189;52.526;13.390;2023-04-29T02:47:21;9.83;;;8.80;;
12253;SDS011;6189;52.526;13.390;2023-04-29T02:50:07;10.23;;;9.33;;
12253;SDS011;6189;52.526;13.390;2023-04-29T02:52:55;10.33;;;9.20;;
12253;SDS011;6189;52.526;13.390;2023-04-29T02:55:40;9.77;;;8.87;;
12253;SDS011;6189;52.526;13.390;2023-04-29T02:58:27;10.97;;;9.83;;
12253;SDS011;6189;52.526;13.390;2023-04-29T03:01:12;10.53;;;8.80;;
12253;SDS011;6189;52.526;13.390;2023-04-29T03:03:59;12.17;;;8.80;;
12253;SDS011;6189;52.526;13.390;2023-04-29T03:06:45;10.43;;;9.00;;
12253;SDS011;6189;52.526;13.390;2023-04-29T03:09:31;10.90;;;9.90;;
12253;SDS011;6189;52.526;13.390;2023-04-29T03:12:16;11.50;;;10.40;;
12253;SDS011;6189;52.526;13.390;2023-04-29T03:15:02;11.33;;;10.23;;
12253;SDS011;6189;52.526;13.390;2023-04-29T03:17:49;11.77;;;10.57;;
12253;SDS011;6189;52.526;13.390;2023-04-29T03:20:36;12.23;;;10.93;;
12253;SDS011;6189;52.526;13.390;2023-04-29T03:23:22;12.80;;;11.50;;
12253;SDS011;6189;52.526;13.390;2023-04-29T03:26:07;12.20;;;10.87;;
12253;SDS011;6189;52.526;13.390;2023-04-29T03:28:53;11.63;;;10.50;;
12253;SDS011;6189;52.526;13.390;2023-04-29T03:31:39;12.17;;;10.90;;
12253;SDS011;6189;52.526;13.390;2023-04-29T03:34:24;13.17;;;11.77;;
12253;SDS011;6189;52.526;13.390;2023-04-29T03:37:11;12.43;;;11.13;;
12253;SDS011;6189;52.526;13.390;2023-04-29T03:39:59;13.67;;;12.37;;
12253;SDS011;6189;52.526;13.390;2023-04-29T03:42:45;13.83;;;12.10;;
12253;SDS011;6189;52.526;13.390;2023-04-29T03:45:30;13.80;;;12.30;;
12253;SDS011;6189;52.526;13.390;2023-04-29T03:48:16;14.67;;;13.10;;
12253;SDS011;6189;52.526;13.390;2023-04-29T03:51:02;14.20;;;12.90;;
12253;SDS011;6189;52.526;13.390;2023-04-29T03:53:50;13.67;;;12.27;;
12253;SDS011;6189;52.526;13.390;2023-04-29T03:56:39;14.20;;;12.80;;
12253;SDS011;6189;52.526;13.390;2023-04-29T03:59:24;15.03;;;13.37;;
12253;SDS011;6189;52.526;13.390;2023-04-29T04:02:10;15.83;;;13.03;;
12253;SDS011;6189;52.526;13.390;2023-04-29T04:04:56;14.83;;;13.23;;
12253;SDS011;6189;52.526;13.390;2023-04-29T04:07:42;14.80;;;13.13;;
12253;SDS011;6189;52.526;13.390;2023-04-29T04:10:29;16.33;;;14.80;;
12253;SDS011;6189;52.526;13.390;2023-04-29T04:13:15;16.10;;;14.40;;
12253;SDS011;6189;52.526;13.390;2023-04-29T04:16:01;15.90;;;14.30;;
12253;SDS011;6189;52.526;13.390;2023-04-29T04:18:46;17.37;;;15.57;;
12253;SDS011;6189;52.526;13.390;2023-04-29T04:21:32;17.00;;;15.27;;
12253;SDS011;6189;52.526;13.390;2023-04-29T04:24:19;16.07;;;14.40;;
12253;SDS011;6189;52.526;13.390;2023-04-29T04:27:05;17.90;;;15.90;;
12253;SDS011;6189;52.526;13.390;2023-04-29T04:29:52;18.00;;;16.10;;
12253;SDS011;6189;52.526;13.390;2023-04-29T04:32:38;17.33;;;15.40;;
12253;SDS011;6189;52.526;13.390;2023-04-29T04:35:24;17.50;;;15.67;;
12253;SDS011;6189;52.526;13.390;2023-04-29T04:38:09;17.33;;;15.47;;
12253;SDS011;6189;52.526;13.390;2023-04-29T04:40:55;18.10;;;16.20;;
12253;SDS011;6189;52.526;13.390;2023-04-29T04:43:42;17.63;;;15.83;;
12253;SDS011;6189;52.526;13.390;2023-04-29T04:46:27;17.77;;;15.97;;
12253;SDS011;6189;52.526;13.390;2023-04-29T04:49:14;19.33;;;15.90;;
12253;SDS011;6189;52.526;13.390;2023-04-29T04:51:59;20.57;;;16.47;;
12253;SDS011;6189;52.526;13.390;2023-04-29T04:54:45;18.43;;;16.33;;
12253;SDS011;6189;52.526;13.390;2023-04-29T04:57:31;17.77;;;16.07;;
12253;SDS011;6189;52.526;13.390;2023-04-29T05:00:18;17.30;;;15.60;;
12253;SDS011;6189;52.526;13.390;2023-04-29T05:03:04;18.83;;;16.40;;
12253;SDS011;6189;52.526;13.390;2023-04-29T05:05:52;18.83;;;16.90;;
12253;SDS011;6189;52.526;13.390;2023-04-29T05:08:38;18.37;;;16.53;;
12253;SDS011;6189;52.526;13.390;2023-04-29T05:11:24;18.93;;;17.03;;
12253;SDS011;6189;52.526;13.390;2023-04-29T05:14:09;19.00;;;16.87;;
12253;SDS011;6189;52.526;13.390;2023-04-29T05:16:58;18.80;;;16.90;;
12253;SDS011;6189;52.526;13.390;2023-04-29T05:19:44;18.90;;;16.90;;
12253;SDS011;6189;52.526;13.390;2023-04-29T05:22:30;18.57;;;16.87;;
12253;SDS011;6189;52.526;13.390;2023-04-29T05:25:16;18.93;;;16.40;;
12253;SDS011;6189;52.526;13.390;2023-04-29T05:28:01;18.40;;;16.50;;
12253;SDS011;6189;52.526;13.390;2023-04-29T05:30:49;18.13;;;16.30;;
12253;SDS011;6189;52.526;13.390;2023-04-29T05:33:36;17.23;;;15.47;;
12253;SDS011;6189;52.526;13.390;2023-04-29T05:36:22;17.93;;;16.17;;
12253;SDS011;6189;52.526;13.390;2023-04-29T05:39:07;16.33;;;14.73;;
12253;SDS011;6189;52.526;13.390;2023-04-29T05:41:53;17.70;;;15.90;;
12253;SDS011;6189;52.526;13.390;2023-04-29T05:44:39;16.90;;;15.20;;
12253;SDS011;6189;52.526;13.390;2023-04-29T05:47:25;17.10;;;15.40;;
12253;SDS011;6189;52.526;13.390;2023-04-29T05:50:12;18.23;;;16.43;;
12253;SDS011;6189;52.526;13.390;2023-04-29T05:52:57;17.57;;;15.77;;
12253;SDS011;6189;52.526;13.390;2023-04-29T05:55:43;17.53;;;15.73;;
12253;SDS011;6189;52.526;13.390;2023-04-29T05:58:29;17.50;;;15.50;;
12253;SDS011;6189;52.526;13.390;2023-04-29T06:01:15;17.30;;;15.60;;
12253;SDS011;6189;52.526;13.390;2023-04-29T06:04:01;16.13;;;14.53;;
12253;SDS011;6189;52.526;13.390;2023-04-29T06:06:48;17.20;;;15.50;;
12253;SDS011;6189;52.526;13.390;2023-04-29T06:09:34;17.27;;;15.47;;
12253;SDS011;6189;52.526;13.390;2023-04-29T06:12:19;18.40;;;16.40;;
12253;SDS011;6189;52.526;13.390;2023-04-29T06:15:06;17.97;;;15.77;;
12253;SDS011;6189;52.526;13.390;2023-04-29T06:17:52;18.03;;;16.20;;
12253;SDS011;6189;52.526;13.390;2023-04-29T06:20:37;17.70;;;16.03;;
12253;SDS011;6189;52.526;13.390;2023-04-29T06:23:24;17.47;;;15.67;;
12253;SDS011;6189;52.526;13.390;2023-04-29T06:26:10;20.00;;;17.90;;
12253;SDS011;6189;52.526;13.390;2023-04-29T06:28:56;17.03;;;15.03;;
12253;SDS011;6189;52.526;13.390;2023-04-29T06:31:41;17.90;;;16.00;;
12253;SDS011;6189;52.526;13.390;2023-04-29T06:34:27;18.53;;;16.57;;
12253;SDS011;6189;52.526;13.390;2023-04-29T06:37:13;20.97;;;17.80;;
12253;SDS011;6189;52.526;13.390;2023-04-29T06:40:00;19.77;;;17.13;;
12253;SDS011;6189;52.526;13.390;2023-04-29T06:42:45;18.67;;;16.50;;
12253;SDS011;6189;52.526;13.390;2023-04-29T06:45:31;17.57;;;15.67;;
12253;SDS011;6189;52.526;13.390;2023-04-29T06:48:17;17.93;;;15.60;;
12253;SDS011;6189;52.526;13.390;2023-04-29T06:51:02;17.20;;;15.43;;
12253;SDS011;6189;52.526;13.390;2023-04-29T06:53:48;16.77;;;15.00;;
12253;SDS011;6189;52.526;13.390;2023-04-29T06:56:35;17.17;;;15.10;;
12253;SDS011;6189;52.526;13.390;2023-04-29T06:59:20;15.43;;;13.93;;
12253;SDS011;6189;52.526;13.390;2023-04-29T07:02:06;15.10;;;13.40;;
12253;SDS011;6189;52.526;13.390;2023-04-29T07:04:52;15.40;;;13.83;;
12253;SDS011;6189;52.526;13.390;2023-04-29T07:07:38;16.37;;;14.77;;
12253;SDS011;6189;52.526;13.390;2023-04-29T07:10:23;16.43;;;14.63;;
12253;SDS011;6189;52.526;13.390;2023-04-29T07:13:11;19.43;;;15.10;;
12253;SDS011;6189;52.526;13.390;2023-04-29T07:15:57;16.93;;;15.07;;
12253;SDS011;6189;52.526;13.390;2023-04-29T07:18:43;15.47;;;13.87;;
12253;SDS011;6189;52.526;13.390;2023-04-29T07:21:29;15.53;;;13.90;;
12253;SDS011;6189;52.526;13.390;2023-04-29T07:24:15;18.40;;;16.33;;
12253;SDS011;6189;52.526;13.390;2023-04-29T07:27:00;17.53;;;14.73;;
12253;SDS011;6189;52.526;13.390;2023-04-29T07:29:48;19.57;;;14.97;;
12253;SDS011;6189;52.526;13.390;2023-04-29T07:32:33;19.07;;;16.23;;
12253;SDS011;6189;52.526;13.390;2023-04-29T07:35:20;19.80;;;16.33;;
12253;SDS011;6189;52.526;13.390;2023-04-29T07:38:05;24.13;;;17.10;;
12253;SDS011;6189;52.526;13.390;2023-04-29T07:40:51;18.77;;;15.27;;
12253;SDS011;6189;52.526;13.390;2023-04-29T07:43:36;16.07;;;14.37;;
12253;SDS011;6189;52.526;13.390;2023-04-29T07:46:23;16.47;;;14.80;;
12253;SDS011;6189;52.526;13.390;2023-04-29T07:49:09;21.07;;;15.17;;
12253;SDS011;6189;52.526;13.390;2023-04-29T07:51:55;15.90;;;14.17;;
12253;SDS011;6189;52.526;13.390;2023-04-29T07:54:40;14.90;;;13.37;;
12253;SDS011;6189;52.526;13.390;2023-04-29T07:57:26;13.97;;;12.43;;
12253;SDS011;6189;52.526;13.390;2023-04-29T08:00:12;13.47;;;12.07;;
12253;SDS011;6189;52.526;13.390;2023-04-29T08:02:59;13.83;;;12.43;;
12253;SDS011;6189;52.526;13.390;2023-04-29T08:05:45;12.83;;;11.53;;
12253;SDS011;6189;52.526;13.390;2023-04-29T08:08:31;12.73;;;11.17;;
12253;SDS011;6189;52.526;13.390;2023-04-29T08:11:16;10.70;;;9.60;;
12253;SDS011;6189;52.526;13.390;2023-04-29T08:14:03;11.17;;;9.93;;
12253;SDS011;6189;52.526;13.390;2023-04-29T08:16:49;10.17;;;9.17;;
12253;SDS011;6189;52.526;13.390;2023-04-29T08:19:36;10.43;;;9.23;;
12253;SDS011;6189;52.526;13.390;2023-04-29T08:22:21;12.47;;;11.17;;
12253;SDS011;6189;52.526;13.390;2023-04-29T08:25:07;11.57;;;10.37;;
12253;SDS011;6189;52.526;13.390;2023-04-29T08:27:54;14.33;;;10.27;;
12253;SDS011;6189;52.526;13.390;2023-04-29T08:30:40;11.60;;;10.17;;
12253;SDS011;6189;52.526;13.390;2023-04-29T08:33:26;11.97;;;10.77;;
12253;SDS011;6189;52.526;13.390;2023-04-29T08:36:13;11.30;;;10.10;;
12253;SDS011;6189;52.526;13.390;2023-04-29T08:38:59;11.80;;;10.60;;
12253;SDS011;6189;52.526;13.390;2023-04-29T08:41:45;12.57;;;11.37;;
12253;SDS011;6189;52.526;13.390;2023-04-29T08:44:35;13.70;;;12.30;;
12253;SDS011;6189;52.526;13.390;2023-04-29T08:47:20;11.60;;;10.60;;
12253;SDS011;6189;52.526;13.390;2023-04-29T08:50:07;11.80;;;10.70;;
12253;SDS011;6189;52.526;13.390;2023-04-29T08:52:55;12.83;;;11.33;;
12253;SDS011;6189;52.526;13.390;2023-04-29T08:55:41;12.77;;;11.57;;
12253;SDS011;6189;52.526;13.390;2023-04-29T08:58:28;14.03;;;12.63;;
12253;SDS011;6189;52.526;13.390;2023-04-29T09:01:18;15.13;;;13.20;;
12253;SDS011;6189;52.526;13.390;2023-04-29T09:04:07;13.83;;;12.43;;
12253;SDS011;6189;52.526;13.390;2023-04-29T09:06:59;15.60;;;13.10;;
12253;SDS011;6189;52.526;13.390;2023-04-29T09:09:47;13.37;;;11.97;;
12253;SDS011;6189;52.526;13.390;2023-04-29T09:12:35;16.07;;;13.40;;
12253;SDS011;6189;52.526;13.390;2023-04-29T09:15:21;17.77;;;14.30;;
12253;SDS011;6189;52.526;13.390;2023-04-29T09:18:07;15.40;;;13.80;;
12253;SDS011;6189;52.526;13.390;2023-04-29T09:20:52;17.20;;;15.40;;
12253;SDS011;6189;52.526;13.390;2023-04-29T09:23:38;17.40;;;15.60;;
12253;SDS011;6189;52.526;13.390;2023-04-29T09:26:25;18.73;;;16.83;;
12253;SDS011;6189;52.526;13.390;2023-04-29T09:29:12;21.23;;;18.03;;
12253;SDS011;6189;52.526;13.390;2023-04-29T09:31:59;20.50;;;17.97;;
12253;SDS011;6189;52.526;13.390;2023-04-29T09:34:44;20.63;;;18.53;;
12253;SDS011;6189;52.526;13.390;2023-04-29T09:37:30;20.33;;;17.50;;
12253;SDS011;6189;52.526;13.390;2023-04-29T09:40:28;21.20;;;18.57;;
12253;SDS011;6189;52.526;13.390;2023-04-29T09:43:16;20.43;;;18.23;;
12253;SDS011;6189;52.526;13.390;2023-04-29T09:46:02;25.33;;;19.60;;
12253;SDS011;6189;52.526;13.390;2023-04-29T09:48:48;29.50;;;23.03;;
12253;SDS011;6189;52.526;13.390;2023-04-29T09:51:34;24.83;;;21.57;;
12253;SDS011;6189;52.526;13.390;2023-04-29T09:54:37;29.17;;;22.73;;
12253;SDS011;6189;52.526;13.390;2023-04-29T09:57:24;33.17;;;25.00;;
12253;SDS011;6189;52.526;13.390;2023-04-29T10:00:25;29.30;;;23.83;;
12253;SDS011;6189;52.526;13.390;2023-04-29T10:03:14;31.23;;;24.70;;
12253;SDS011;6189;52.526;13.390;2023-04-29T10:06:01;37.07;;;28.37;;
12253;SDS011;6189;52.526;13.390;2023-04-29T10:08:48;32.77;;;28.90;;
12253;SDS011;6189;52.526;13.390;2023-04-29T10:11:34;34.57;;;29.93;;
12253;SDS011;6189;52.526;13.390;2023-04-29T10:14:21;37.67;;;30.17;;
12253;SDS011;6189;52.526;13.390;2023-04-29T10:17:13;36.37;;;29.63;;
12253;SDS011;6189;52.526;13.390;2023-04-29T10:20:02;35.63;;;30.53;;
12253;SDS011;6189;52.526;13.390;2023-04-29T10:22:50;40.73;;;31.93;;
12253;SDS011;6189;52.526;13.390;2023-04-29T10:25:37;39.07;;;32.33;;
12253;SDS011;6189;52.526;13.390;2023-04-29T10:28:25;40.07;;;33.57;;
12253;SDS011;6189;52.526;13.390;2023-04-29T10:31:15;39.80;;;33.00;;
12253;SDS011;6189;52.526;13.390;2023-04-29T10:34:05;41.87;;;32.53;;
12253;SDS011;6189;52.526;13.390;2023-04-29T10:36:51;37.57;;;31.73;;
12253;SDS011;6189;52.526;13.390;2023-04-29T10:39:39;40.53;;;33.00;;
12253;SDS011;6189;52.526;13.390;2023-04-29T10:42:35;40.40;;;33.13;;
12253;SDS011;6189;52.526;13.390;2023-04-29T10:45:27;34.53;;;29.80;;
12253;SDS011;6189;52.526;13.390;2023-04-29T10:48:14;31.00;;;27.50;;
12253;SDS011;6189;52.526;13.390;2023-04-29T10:51:03;31.37;;;27.37;;
12253;SDS011;6189;52.526;13.390;2023-04-29T10:53:56;26.37;;;23.53;;
12253;SDS011;6189;52.526;13.390;2023-04-29T10:56:43;29.03;;;25.13;;
12253;SDS011;6189;52.526;13.390;2023-04-29T10:59:43;26.13;;;23.30;;
12253;SDS011;6189;52.526;13.390;2023-04-29T11:02:30;26.47;;;22.00;;
12253;SDS011;6189;52.526;13.390;2023-04-29T11:05:16;27.93;;;21.73;;
12253;SDS011;6189;52.526;13.390;2023-04-29T11:08:18;24.57;;;20.60;;
12253;SDS011;6189;52.526;13.390;2023-04-29T11:11:09;24.63;;;20.20;;
12253;SDS011;6189;52.526;13.390;2023-04-29T11:13:57;22.50;;;20.10;;
12253;SDS011;6189;52.526;13.390;2023-04-29T11:16:46;22.63;;;20.33;;
12253;SDS011;6189;52.526;13.390;2023-04-29T11:19:33;22.07;;;19.77;;
12253;SDS011;6189;52.526;13.390;2023-04-29T11:22:24;22.07;;;19.77;;
12253;SDS011;6189;52.526;13.390;2023-04-29T11:25:12;25.13;;;21.17;;
12253;SDS011;6189;52.526;13.390;2023-04-29T11:27:57;22.73;;;19.63;;
12253;SDS011;6189;52.526;13.390;2023-04-29T11:30:44;21.70;;;19.43;;
12253;SDS011;6189;52.526;13.390;2023-04-29T11:33:31;20.47;;;18.47;;
12253;SDS011;6189;52.526;13.390;2023-04-29T11:36:17;18.73;;;16.83;;
12253;SDS011;6189;52.526;13.390;2023-04-29T11:39:02;18.77;;;16.77;;
12253;SDS011;6189;52.526;13.390;2023-04-29T11:41:50;22.13;;;17.30;;
12253;SDS011;6189;52.526;13.390;2023-04-29T11:44:35;20.27;;;18.13;;
12253;SDS011;6189;52.526;13.390;2023-04-29T11:47:24;18.97;;;16.83;;
12253;SDS011;6189;52.526;13.390;2023-04-29T11:50:11;21.83;;;17.07;;
12253;SDS011;6189;52.526;13.390;2023-04-29T11:52:59;17.40;;;15.43;;
12253;SDS011;6189;52.526;13.390;2023-04-29T11:55:46;16.23;;;14.50;;
12253;SDS011;6189;52.526;13.390;2023-04-29T11:58:33;16.13;;;13.60;;
12253;SDS011;6189;52.526;13.390;2023-04-29T12:01:19;14.00;;;12.50;;
12253;SDS011;6189;52.526;13.390;2023-04-29T12:04:05;21.07;;;15.90;;
12253;SDS011;6189;52.526;13.390;2023-04-29T12:06:51;22.87;;;16.50;;
12253;SDS011;6189;52.526;13.390;2023-04-29T12:09:40;22.77;;;17.47;;
12253;SDS011;6189;52.526;13.390;2023-04-29T12:12:27;22.63;;;17.63;;
12253;SDS011;6189;52.526;13.390;2023-04-29T12:15:16;21.13;;;15.53;;
12253;SDS011;6189;52.526;13.390;2023-04-29T12:18:02;21.10;;;13.50;;
12253;SDS011;6189;52.526;13.390;2023-04-29T12:20:48;14.93;;;12.90;;
12253;SDS011;6189;52.526;13.390;2023-04-29T12:23:35;15.13;;;13.50;;
12253;SDS011;6189;52.526;13.390;2023-04-29T12:26:21;16.00;;;14.00;;
12253;SDS011;6189;52.526;13.390;2023-04-29T12:29:09;14.17;;;12.77;;
12253;SDS011;6189;52.526;13.390;2023-04-29T12:31:56;14.87;;;13.23;;
12253;SDS011;6189;52.526;13.390;2023-04-29T12:34:41;15.70;;;13.87;;
12253;SDS011;6189;52.526;13.390;2023-04-29T12:37:29;14.80;;;11.93;;
12253;SDS011;6189;52.526;13.390;2023-04-29T12:40:15;15.10;;;12.63;;
12253;SDS011;6189;52.526;13.390;2023-04-29T12:43:06;13.10;;;11.73;;
12253;SDS011;6189;52.526;13.390;2023-04-29T12:45:53;12.67;;;11.27;;
12253;SDS011;6189;52.526;13.390;2023-04-29T12:48:41;10.40;;;9.30;;
12253;SDS011;6189;52.526;13.390;2023-04-29T12:51:27;11.03;;;9.90;;
12253;SDS011;6189;52.526;13.390;2023-04-29T12:54:14;9.70;;;8.80;;
12253;SDS011;6189;52.526;13.390;2023-04-29T12:57:00;9.80;;;8.60;;
12253;SDS011;6189;52.526;13.390;2023-04-29T12:59:46;8.93;;;8.03;;
12253;SDS011;6189;52.526;13.390;2023-04-29T13:02:32;9.33;;;8.20;;
12253;SDS011;6189;52.526;13.390;2023-04-29T13:05:19;8.03;;;7.33;;
12253;SDS011;6189;52.526;13.390;2023-04-29T13:08:06;7.87;;;6.77;;
12253;SDS011;6189;52.526;13.390;2023-04-29T13:10:52;7.37;;;6.67;;
12253;SDS011;6189;52.526;13.390;2023-04-29T13:13:37;7.00;;;6.30;;
12253;SDS011;6189;52.526;13.390;2023-04-29T13:16:24;6.83;;;6.10;;
12253;SDS011;6189;52.526;13.390;2023-04-29T13:19:10;6.67;;;5.50;;
12253;SDS011;6189;52.526;13.390;2023-04-29T13:21:57;6.17;;;5.57;;
12253;SDS011;6189;52.526;13.390;2023-04-29T13:24:43;6.20;;;5.60;;
12253;SDS011;6189;52.526;13.390;2023-04-29T13:27:29;7.37;;;5.20;;
12253;SDS011;6189;52.526;13.390;2023-04-29T13:30:14;6.13;;;5.10;;
12253;SDS011;6189;52.526;13.390;2023-04-29T13:33:00;8.63;;;5.60;;
12253;SDS011;6189;52.526;13.390;2023-04-29T13:35:46;6.17;;;5.40;;
12253;SDS011;6189;52.526;13.390;2023-04-29T13:38:34;6.13;;;5.53;;
12253;SDS011;6189;52.526;13.390;2023-04-29T13:41:19;7.13;;;5.97;;
12253;SDS011;6189;52.526;13.390;2023-04-29T13:44:05;6.60;;;5.90;;
12253;SDS011;6189;52.526;13.390;2023-04-29T13:46:51;7.00;;;6.30;;
12253;SDS011;6189;52.526;13.390;2023-04-29T13:49:37;8.00;;;7.20;;
12253;SDS011;6189;52.526;13.390;2023-04-29T13:52:23;8.80;;;7.30;;
12253;SDS011;6189;52.526;13.390;2023-04-29T13:55:10;7.53;;;6.73;;
12253;SDS011;6189;52.526;13.390;2023-04-29T13:57:56;8.93;;;8.03;;
12253;SDS011;6189;52.526;13.390;2023-04-29T14:00:41;9.87;;;8.67;;
12253;SDS011;6189;52.526;13.390;2023-04-29T14:03:27;8.70;;;7.80;;
12253;SDS011;6189;52.526;13.390;2023-04-29T14:06:13;11.17;;;8.13;;
12253;SDS011;6189;52.526;13.390;2023-04-29T14:08:59;10.13;;;8.20;;
12253;SDS011;6189;52.526;13.390;2023-04-29T14:11:46;10.67;;;7.73;;
12253;SDS011;6189;52.526;13.390;2023-04-29T14:14:32;9.83;;;7.90;;
12253;SDS011;6189;52.526;13.390;2023-04-29T14:17:18;9.90;;;7.87;;
12253;SDS011;6189;52.526;13.390;2023-04-29T14:20:04;9.13;;;8.17;;
12253;SDS011;6189;52.526;13.390;2023-04-29T14:22:51;11.43;;;8.80;;
12253;SDS011;6189;52.526;13.390;2023-04-29T14:25:37;12.93;;;9.10;;
12253;SDS011;6189;52.526;13.390;2023-04-29T14:28:24;12.77;;;9.50;;
12253;SDS011;6189;52.526;13.390;2023-04-29T14:31:09;14.17;;;8.93;;
12253;SDS011;6189;52.526;13.390;2023-04-29T14:33:56;11.23;;;8.23;;
12253;SDS011;6189;52.526;13.390;2023-04-29T14:36:42;13.37;;;10.03;;
12253;SDS011;6189;52.526;13.390;2023-04-29T14:39:29;12.50;;;8.90;;
12253;SDS011;6189;52.526;13.390;2023-04-29T14:42:14;8.37;;;7.57;;
12253;SDS011;6189;52.526;13.390;2023-04-29T14:45:03;10.20;;;7.47;;
12253;SDS011;6189;52.526;13.390;2023-04-29T14:47:49;8.97;;;7.27;;
12253;SDS011;6189;52.526;13.390;2023-04-29T14:50:35;8.80;;;7.53;;
12253;SDS011;6189;52.526;13.390;2023-04-29T14:53:21;10.87;;;7.13;;
12253;SDS011;6189;52.526;13.390;2023-04-29T14:56:07;7.53;;;6.67;;
12253;SDS011;6189;52.526;13.390;2023-04-29T14:58:52;9.93;;;7.97;;
12253;SDS011;6189;52.526;13.390;2023-04-29T15:01:40;9.93;;;6.80;;
12253;SDS011;6189;52.526;13.390;2023-04-29T15:04:26;9.60;;;7.40;;
12253;SDS011;6189;52.526;13.390;2023-04-29T15:07:11;8.33;;;6.63;;
12253;SDS011;6189;52.526;13.390;2023-04-29T15:09:57;8.00;;;6.17;;
12253;SDS011;6189;52.526;13.390;2023-04-29T15:12:43;9.97;;;7.30;;
12253;SDS011;6189;52.526;13.390;2023-04-29T15:15:29;8.97;;;6.27;;
12253;SDS011;6189;52.526;13.390;2023-04-29T15:18:16;7.87;;;6.80;;
12253;SDS011;6189;52.526;13.390;2023-04-29T15:21:03;9.60;;;6.87;;
12253;SDS011;6189;52.526;13.390;2023-04-29T15:23:49;12.10;;;7.23;;
12253;SDS011;6189;52.526;13.390;2023-04-29T15:26:34;9.40;;;6.27;;
12253;SDS011;6189;52.526;13.390;2023-04-29T15:29:20;8.40;;;6.80;;
12253;SDS011;6189;52.526;13.390;2023-04-29T15:32:06;9.00;;;6.60;;
12253;SDS011;6189;52.526;13.390;2023-04-29T15:34:54;8.03;;;6.00;;
12253;SDS011;6189;52.526;13.390;2023-04-29T15:37:39;7.93;;;6.33;;
12253;SDS011;6189;52.526;13.390;2023-04-29T15:40:25;8.10;;;6.63;;
12253;SDS011;6189;52.526;13.390;2023-04-29T15:43:11;8.60;;;7.23;;
12253;SDS011;6189;52.526;13.390;2023-04-29T15:45:57;6.97;;;6.00;;
12253;SDS011;6189;52.526;13.390;2023-04-29T15:48:43;8.23;;;6.10;;
12253;SDS011;6189;52.526;13.390;2023-04-29T15:51:30;6.70;;;5.13;;
12253;SDS011;6189;52.526;13.390;2023-04-29T15:54:16;8.93;;;6.10;;
12253;SDS011;6189;52.526;13.390;2023-04-29T15:57:01;6.90;;;6.00;;
12253;SDS011;6189;52.526;13.390;2023-04-29T15:59:47;9.33;;;6.03;;
12253;SDS011;6189;52.526;13.390;2023-04-29T16:02:33;9.70;;;5.70;;
12253;SDS011;6189;52.526;13.390;2023-04-29T16:05:18;8.30;;;5.80;;
12253;SDS011;6189;52.526;13.390;2023-04-29T16:08:05;10.07;;;6.97;;
12253;SDS011;6189;52.526;13.390;2023-04-29T16:10:51;7.77;;;6.10;;
12253;SDS011;6189;52.526;13.390;2023-04-29T16:13:37;8.10;;;5.80;;
12253;SDS011;6189;52.526;13.390;2023-04-29T16:16:22;7.07;;;5.77;;
12253;SDS011;6189;52.526;13.390;2023-04-29T16:19:11;7.37;;;5.83;;
12253;SDS011;6189;52.526;13.390;2023-04-29T16:21:57;9.27;;;6.57;;
12253;SDS011;6189;52.526;13.390;2023-04-29T16:24:44;9.17;;;5.87;;
12253;SDS011;6189;52.526;13.390;2023-04-29T16:27:30;7.13;;;5.57;;